Custom Search

Airport METAR Reports

 

YMAV - Avalon Airport, Australia
Distance from station: 0 0km
Updated: 19/10/2017 14:00
Mostly cloudy
Mostly cloudy
 Wind from S
Wind: S 13 km/h
Temperature: 23°C
Dew Point: 19°C
Humidity: 78%
Barometer: 1015 hPa
Clouds: Mostly cloudy
Visibility: 10 km
Cloud details: Partly cloudy 1250 m
Partly cloudy 1433 m
Mostly cloudy 1890 m
2017/10/19 03:00 YMAV 190300Z AUTO 17007KT 100V240 9999 // SCT041 SCT047 BKN062 23/19 Q1015
YMML - Melbourne Intl A, Australia
Distance from station: NE 50km
Updated: 19/10/2017 14:00
Mostly cloudy
Mostly cloudy
 Wind from WSW
Wind: WSW 19 km/h
Temperature: 25°C
Dew Point: 17°C
Humidity: 61%
Barometer: 1015 hPa
Clouds: Mostly cloudy
Visibility: 10 km
Cloud details: Few Clouds 762 m
Mostly cloudy 1524 m
2017/10/19 03:00 YMML 190300Z 24010KT 9999 FEW025 BKN050 25/17 Q1015 FM0330 34014KT 9999 -SHRA SCT030 BKN050 FM0530 23020G30KT 9999 -SHRA SCT015 BKN025 INTER 0300/0600 2000 TSRA BKN020 FEW035CB
YMEN - Melbourne/Essend, Australia
Distance from station: NE 51km
Updated: 19/10/2017 14:00
Mostly cloudy
Mostly cloudy
 Wind from N
Wind: N 13 km/h
Temperature: 25°C
Dew Point: 18°C
Humidity: 65%
Barometer: 1015 hPa
Clouds: Mostly cloudy
Visibility: 10 km
Cloud details: Mostly cloudy 1158 m
Mostly cloudy 1341 m
Mostly cloudy 1829 m
2017/10/19 03:00 YMEN 190300Z AUTO 36007KT 9999 // BKN038 BKN044 BKN060 25/18 Q1015
 
YWGT - Wangaratta Arp, Australia
Distance from station: NE 241km
Updated: 19/10/2017 14:00
Overcast
Overcast
 Wind from S
Wind: S 6 km/h
Temperature: 19°C
Dew Point: 19°C
Humidity: 100%
Barometer: 1018 hPa
Clouds: Overcast
Cloud details: Mostly cloudy 183 m
Overcast 366 m
Overcast 640 m
2017/10/19 03:00 YWGT 190300Z AUTO 17003KT //// // BKN006 OVC012 OVC021 19/19 Q1018
YMAY - Albury Airport, Australia
Distance from station: NE 308km
Updated: 19/10/2017 14:16
Overcast
Overcast
 Wind from SSE
Wind: SSE 7 km/h
Temperature: 19°C
Dew Point: 19°C
Humidity: 100%
Barometer: 1019 hPa
Clouds: Overcast
Visibility: 6 km
Cloud details: Mostly cloudy 610 m
Overcast 732 m
2017/10/19 03:16 YMAY 190316Z AUTO 15004KT 6000 // BKN020 OVC024 19/19 Q1019
YMTG - Mount Gambier, Australia
Distance from station: W 326km
Updated: 19/10/2017 14:00
Partly cloudy
Partly cloudy
 Wind from WSW
Wind: WSW 31 km/h
Temperature: 16°C
Dew Point: 9°C
Humidity: 63%
Barometer: 1020 hPa
Clouds: Partly cloudy
Visibility: 10 km
Cloud details: Partly cloudy 884 m
Partly cloudy 1036 m
2017/10/19 03:00 YMTG 190300Z AUTO 25017KT 9999 // SCT029 SCT034 16/09 Q1020
 
YNAR - Narrandera, Australia
Distance from station: NNE 413km
Updated: 19/10/2017 14:00

 Wind from N
Wind: N 17 km/h
Temperature: 21°C
Dew Point: 20°C
Humidity: 94%
Barometer: 1020 hPa
2017/10/19 03:00 YNAR 190300Z AUTO 36009KT //// // ////// 21/20 Q1020
YSWG - Wagga Wagga(Cv/M, Australia
Distance from station: NE 418km
Updated: 19/10/2017 14:24
Light rain, Mostly cloudy
Light rain, Mostly cloudy
 Wind from ENE
Wind: ENE 2 km/h
Temperature: 22°C
Dew Point: 18°C
Humidity: 78%
Barometer: 1021 hPa
Summary: Light rain
Clouds: Mostly cloudy
Visibility: 6 km
Cloud details: Few Clouds 762 m
Mostly cloudy 1372 m
2017/10/19 03:24 YSWG 190324Z 06001KT 6000 -RA FEW025 BKN045 22/18 Q1021
YCOM - Cooma Snowy Mtns, Australia
Distance from station: ENE 441km
Updated: 19/10/2017 14:00
Mostly cloudy
Mostly cloudy
 Wind from NNW
Wind: NNW 24 km/h
Temperature: 22°C
Dew Point: 12°C
Humidity: 53%
Barometer: 1022 hPa
Clouds: Mostly cloudy
Visibility: 10 km
Cloud details: Partly cloudy 1219 m
Mostly cloudy 3810 m
2017/10/19 03:00 YCOM 190300Z AUTO 33013KT 9999 // SCT040 BKN125 22/12 Q1022
 
YGTH - Griffith Arpt, Australia
Distance from station: NNE 444km
Updated: 19/10/2017 14:25
Heavy rain, Showers, Mostly cloudy
Heavy rain, Showers, Mostly cloudy
 Wind from NNW
Wind: NNW 13 km/h
Temperature: 21°C
Dew Point: 20°C
Humidity: 94%
Barometer: 1020 hPa
Summary: Heavy rain, Showers
Clouds: Mostly cloudy
Visibility: 5 km
Cloud details: Partly cloudy 1280 m
Mostly cloudy 1615 m
Mostly cloudy 2073 m
2017/10/19 03:25 YGTH 190325Z AUTO 33007KT 5000 +SHRA SCT042 BKN053 BKN068 21/20 Q1020
YMLT - Launceston Airpo, Australia
Distance from station: SSE 451km
Updated: 19/10/2017 14:00
Light rain, Showers, Overcast
Light rain, Showers, Overcast
 Wind from NNW
Wind: NNW 30 km/h
Temperature: 16°C
Dew Point: 15°C
Humidity: 94%
Barometer: 1012 hPa
Summary: Light rain, Showers
Clouds: Overcast
Visibility: 10 km
Cloud details: Overcast 183 m
Overcast 305 m
2017/10/19 03:00 YMLT 190300Z AUTO 33016KT 9999 -SHRA OVC006 OVC010 16/15 Q1012
YMIA - Mildura Arpt, Australia
Distance from station: NNW 474km
Updated: 19/10/2017 14:00
Partly cloudy
Partly cloudy
 Wind from W
Wind: W 22 km/h, Gust: 41 km/h
Temperature: 28°C
Dew Point: 12°C
Humidity: 37%
Barometer: 1018 hPa
Clouds: Partly cloudy
Visibility: 10 km
Cloud details: Partly cloudy 3810 m
2017/10/19 03:00 YMIA 190300Z AUTO 26012G22KT 9999 // SCT125 28/12 Q1018
 
YMER - Merimbula Arpt, Australia
Distance from station: ENE 494km
Updated: 19/10/2017 14:00
Clear
Clear
 Wind from NE
Wind: NE 19 km/h
Temperature: 22°C
Dew Point: 15°C
Humidity: 65%
Barometer: 1016 hPa
Clouds: Clear
Visibility: 10 km
2017/10/19 03:00 YMER 190300Z AUTO 04010KT 9999 // NCD 22/15 Q1016
YSCB - Canberra (civ/Mi, Australia
Distance from station: NE 518km
Updated: 19/10/2017 14:00
Mostly cloudy
Mostly cloudy
 Wind from WNW
Wind: WNW 30 km/h
Temperature: 24°C
Dew Point: 14°C
Humidity: 54%
Barometer: 1022 hPa
Clouds: Mostly cloudy
Visibility: 10 km
Cloud details: Partly cloudy 1219 m
Mostly cloudy 1981 m
2017/10/19 03:00 YSCB 190300Z 30016KT 9999 SCT040 BKN065 24/14 Q1022 NOSIG
YMHB - Hobart/Tasmania, Australia
Distance from station: SSE 590km
Updated: 19/10/2017 14:00
Mostly cloudy
Mostly cloudy
 Wind from NNW
Wind: NNW 19 km/h
Temperature: 23°C
Dew Point: 15°C
Humidity: 61%
Barometer: 1007 hPa
Clouds: Mostly cloudy
Visibility: 10 km
Cloud details: Partly cloudy 1158 m
Mostly cloudy 7315 m
2017/10/19 03:00 YMHB 190300Z 34010KT 9999 SCT038 BKN240 23/15 Q1007